sensor_id;sensor_type;location;lat;lon;timestamp;P1;durP1;ratioP1;P2;durP2;ratioP2
16579;SDS011;8402;51.466;6.806;2023-07-13T00:01:25;4.50;;;1.77;;
16579;SDS011;8402;51.466;6.806;2023-07-13T00:03:55;6.18;;;1.60;;
16579;SDS011;8402;51.466;6.806;2023-07-13T00:06:25;5.82;;;1.60;;
16579;SDS011;8402;51.466;6.806;2023-07-13T00:08:56;6.82;;;1.33;;
16579;SDS011;8402;51.466;6.806;2023-07-13T00:11:29;2.92;;;1.20;;
16579;SDS011;8402;51.466;6.806;2023-07-13T00:13:59;4.88;;;1.38;;
16579;SDS011;8402;51.466;6.806;2023-07-13T00:16:29;3.00;;;1.40;;
16579;SDS011;8402;51.466;6.806;2023-07-13T00:18:59;4.45;;;1.40;;
16579;SDS011;8402;51.466;6.806;2023-07-13T00:21:29;2.75;;;1.48;;
16579;SDS011;8402;51.466;6.806;2023-07-13T00:23:59;5.82;;;1.35;;
16579;SDS011;8402;51.466;6.806;2023-07-13T00:26:32;4.20;;;1.30;;
16579;SDS011;8402;51.466;6.806;2023-07-13T00:29:02;3.08;;;1.38;;
16579;SDS011;8402;51.466;6.806;2023-07-13T00:31:32;5.75;;;1.42;;
16579;SDS011;8402;51.466;6.806;2023-07-13T00:34:02;4.03;;;1.20;;
16579;SDS011;8402;51.466;6.806;2023-07-13T00:36:32;3.65;;;1.60;;
16579;SDS011;8402;51.466;6.806;2023-07-13T00:39:02;4.68;;;1.30;;
16579;SDS011;8402;51.466;6.806;2023-07-13T00:41:35;5.13;;;1.42;;
16579;SDS011;8402;51.466;6.806;2023-07-13T00:44:08;11.15;;;1.60;;
16579;SDS011;8402;51.466;6.806;2023-07-13T00:46:42;5.70;;;1.35;;
16579;SDS011;8402;51.466;6.806;2023-07-13T00:49:13;4.78;;;1.35;;
16579;SDS011;8402;51.466;6.806;2023-07-13T00:51:48;7.00;;;1.48;;
16579;SDS011;8402;51.466;6.806;2023-07-13T00:54:22;5.05;;;1.67;;
16579;SDS011;8402;51.466;6.806;2023-07-13T00:56:59;4.20;;;1.40;;
16579;SDS011;8402;51.466;6.806;2023-07-13T00:59:32;3.95;;;1.33;;
16579;SDS011;8402;51.466;6.806;2023-07-13T01:02:05;3.50;;;1.30;;
16579;SDS011;8402;51.466;6.806;2023-07-13T01:04:35;9.07;;;1.60;;
16579;SDS011;8402;51.466;6.806;2023-07-13T01:07:05;5.45;;;1.30;;
16579;SDS011;8402;51.466;6.806;2023-07-13T01:09:36;3.50;;;1.20;;
16579;SDS011;8402;51.466;6.806;2023-07-13T01:12:09;7.80;;;1.45;;
16579;SDS011;8402;51.466;6.806;2023-07-13T01:14:40;4.75;;;1.17;;
16579;SDS011;8402;51.466;6.806;2023-07-13T01:17:10;6.32;;;1.23;;
16579;SDS011;8402;51.466;6.806;2023-07-13T01:19:42;3.53;;;1.42;;
16579;SDS011;8402;51.466;6.806;2023-07-13T01:22:17;3.60;;;1.30;;
16579;SDS011;8402;51.466;6.806;2023-07-13T01:24:53;5.30;;;1.40;;
16579;SDS011;8402;51.466;6.806;2023-07-13T01:27:24;3.97;;;1.55;;
16579;SDS011;8402;51.466;6.806;2023-07-13T01:29:55;7.32;;;1.67;;
16579;SDS011;8402;51.466;6.806;2023-07-13T01:32:28;5.25;;;1.55;;
16579;SDS011;8402;51.466;6.806;2023-07-13T01:34:59;4.90;;;1.45;;
16579;SDS011;8402;51.466;6.806;2023-07-13T01:37:32;6.53;;;1.42;;
16579;SDS011;8402;51.466;6.806;2023-07-13T01:40:02;3.58;;;1.30;;
16579;SDS011;8402;51.466;6.806;2023-07-13T01:42:35;4.68;;;1.25;;
16579;SDS011;8402;51.466;6.806;2023-07-13T01:45:05;4.38;;;1.45;;
16579;SDS011;8402;51.466;6.806;2023-07-13T01:47:35;6.47;;;1.42;;
16579;SDS011;8402;51.466;6.806;2023-07-13T01:50:06;4.47;;;1.53;;
16579;SDS011;8402;51.466;6.806;2023-07-13T01:52:38;2.85;;;1.13;;
16579;SDS011;8402;51.466;6.806;2023-07-13T01:55:08;3.58;;;1.25;;
16579;SDS011;8402;51.466;6.806;2023-07-13T01:57:38;5.38;;;1.48;;
16579;SDS011;8402;51.466;6.806;2023-07-13T02:00:09;3.55;;;1.30;;
16579;SDS011;8402;51.466;6.806;2023-07-13T02:02:40;7.47;;;1.23;;
16579;SDS011;8402;51.466;6.806;2023-07-13T02:05:12;5.60;;;1.63;;
16579;SDS011;8402;51.466;6.806;2023-07-13T02:07:45;4.95;;;1.60;;
16579;SDS011;8402;51.466;6.806;2023-07-13T02:10:15;6.38;;;1.30;;
16579;SDS011;8402;51.466;6.806;2023-07-13T02:12:46;4.45;;;2.00;;
16579;SDS011;8402;51.466;6.806;2023-07-13T02:15:17;4.68;;;1.40;;
16579;SDS011;8402;51.466;6.806;2023-07-13T02:17:47;3.70;;;1.50;;
16579;SDS011;8402;51.466;6.806;2023-07-13T02:20:17;4.55;;;1.40;;
16579;SDS011;8402;51.466;6.806;2023-07-13T02:22:50;5.10;;;1.42;;
16579;SDS011;8402;51.466;6.806;2023-07-13T02:25:20;4.40;;;1.40;;
16579;SDS011;8402;51.466;6.806;2023-07-13T02:27:51;4.50;;;1.08;;
16579;SDS011;8402;51.466;6.806;2023-07-13T02:30:21;5.32;;;1.40;;
16579;SDS011;8402;51.466;6.806;2023-07-13T02:32:51;6.10;;;1.42;;
16579;SDS011;8402;51.466;6.806;2023-07-13T02:35:21;3.65;;;1.30;;
16579;SDS011;8402;51.466;6.806;2023-07-13T02:37:54;4.47;;;1.40;;
16579;SDS011;8402;51.466;6.806;2023-07-13T02:40:24;6.32;;;1.23;;
16579;SDS011;8402;51.466;6.806;2023-07-13T02:42:56;8.35;;;1.88;;
16579;SDS011;8402;51.466;6.806;2023-07-13T02:45:26;6.25;;;1.65;;
16579;SDS011;8402;51.466;6.806;2023-07-13T02:47:56;5.35;;;1.55;;
16579;SDS011;8402;51.466;6.806;2023-07-13T02:50:26;7.78;;;2.05;;
16579;SDS011;8402;51.466;6.806;2023-07-13T02:52:58;7.28;;;1.63;;
16579;SDS011;8402;51.466;6.806;2023-07-13T02:55:28;6.20;;;1.73;;
16579;SDS011;8402;51.466;6.806;2023-07-13T02:57:58;7.00;;;1.27;;
16579;SDS011;8402;51.466;6.806;2023-07-13T03:00:28;9.23;;;1.55;;
16579;SDS011;8402;51.466;6.806;2023-07-13T03:02:58;2.45;;;1.20;;
16579;SDS011;8402;51.466;6.806;2023-07-13T03:05:28;6.90;;;1.40;;
16579;SDS011;8402;51.466;6.806;2023-07-13T03:08:00;5.97;;;1.70;;
16579;SDS011;8402;51.466;6.806;2023-07-13T03:10:30;4.60;;;1.50;;
16579;SDS011;8402;51.466;6.806;2023-07-13T03:13:00;3.40;;;1.30;;
16579;SDS011;8402;51.466;6.806;2023-07-13T03:15:30;6.53;;;1.90;;
16579;SDS011;8402;51.466;6.806;2023-07-13T03:18:00;5.47;;;1.65;;
16579;SDS011;8402;51.466;6.806;2023-07-13T03:20:32;5.00;;;1.57;;
16579;SDS011;8402;51.466;6.806;2023-07-13T03:23:05;3.35;;;1.52;;
16579;SDS011;8402;51.466;6.806;2023-07-13T03:25:35;5.17;;;1.93;;
16579;SDS011;8402;51.466;6.806;2023-07-13T03:28:05;3.57;;;1.70;;
16579;SDS011;8402;51.466;6.806;2023-07-13T03:30:34;4.83;;;1.60;;
16579;SDS011;8402;51.466;6.806;2023-07-13T03:33:04;5.73;;;1.80;;
16579;SDS011;8402;51.466;6.806;2023-07-13T03:35:35;3.17;;;1.47;;
16579;SDS011;8402;51.466;6.806;2023-07-13T03:38:08;4.17;;;1.70;;
16579;SDS011;8402;51.466;6.806;2023-07-13T03:40:38;4.30;;;1.73;;
16579;SDS011;8402;51.466;6.806;2023-07-13T03:43:08;8.00;;;1.70;;
16579;SDS011;8402;51.466;6.806;2023-07-13T03:45:38;6.23;;;1.63;;
16579;SDS011;8402;51.466;6.806;2023-07-13T03:48:08;8.07;;;1.80;;
16579;SDS011;8402;51.466;6.806;2023-07-13T03:50:38;7.47;;;1.60;;
16579;SDS011;8402;51.466;6.806;2023-07-13T03:53:10;5.73;;;1.80;;
16579;SDS011;8402;51.466;6.806;2023-07-13T03:55:40;10.60;;;1.60;;
16579;SDS011;8402;51.466;6.806;2023-07-13T03:58:24;4.37;;;1.67;;
16579;SDS011;8402;51.466;6.806;2023-07-13T04:00:57;7.38;;;2.00;;
16579;SDS011;8402;51.466;6.806;2023-07-13T04:03:29;5.20;;;1.80;;
16579;SDS011;8402;51.466;6.806;2023-07-13T04:05:59;4.35;;;1.88;;
16579;SDS011;8402;51.466;6.806;2023-07-13T04:08:33;6.00;;;1.40;;
16579;SDS011;8402;51.466;6.806;2023-07-13T04:11:04;5.40;;;1.90;;
16579;SDS011;8402;51.466;6.806;2023-07-13T04:13:34;6.57;;;1.65;;
16579;SDS011;8402;51.466;6.806;2023-07-13T04:16:04;8.33;;;1.70;;
16579;SDS011;8402;51.466;6.806;2023-07-13T04:18:34;5.30;;;1.80;;
16579;SDS011;8402;51.466;6.806;2023-07-13T04:21:04;10.10;;;1.95;;
16579;SDS011;8402;51.466;6.806;2023-07-13T04:23:37;7.25;;;1.75;;
16579;SDS011;8402;51.466;6.806;2023-07-13T04:26:08;6.80;;;1.50;;
16579;SDS011;8402;51.466;6.806;2023-07-13T04:28:39;5.87;;;1.60;;
16579;SDS011;8402;51.466;6.806;2023-07-13T04:31:08;5.47;;;1.73;;
16579;SDS011;8402;51.466;6.806;2023-07-13T04:33:38;7.95;;;1.77;;
16579;SDS011;8402;51.466;6.806;2023-07-13T04:36:10;6.13;;;2.13;;
16579;SDS011;8402;51.466;6.806;2023-07-13T04:38:42;10.13;;;1.87;;
16579;SDS011;8402;51.466;6.806;2023-07-13T04:41:15;9.00;;;1.90;;
16579;SDS011;8402;51.466;6.806;2023-07-13T04:43:45;15.03;;;2.10;;
16579;SDS011;8402;51.466;6.806;2023-07-13T04:46:16;15.00;;;2.13;;
16579;SDS011;8402;51.466;6.806;2023-07-13T04:48:48;9.57;;;2.23;;
16579;SDS011;8402;51.466;6.806;2023-07-13T04:51:20;11.98;;;1.98;;
16579;SDS011;8402;51.466;6.806;2023-07-13T04:53:53;10.63;;;2.30;;
16579;SDS011;8402;51.466;6.806;2023-07-13T04:56:26;11.60;;;2.63;;
16579;SDS011;8402;51.466;6.806;2023-07-13T04:58:56;14.63;;;2.77;;
16579;SDS011;8402;51.466;6.806;2023-07-13T05:01:26;14.82;;;2.60;;
16579;SDS011;8402;51.466;6.806;2023-07-13T05:03:57;13.85;;;2.92;;
16579;SDS011;8402;51.466;6.806;2023-07-13T05:06:27;11.07;;;2.07;;
16579;SDS011;8402;51.466;6.806;2023-07-13T05:09:00;8.35;;;2.40;;
16579;SDS011;8402;51.466;6.806;2023-07-13T05:11:30;9.95;;;2.25;;
16579;SDS011;8402;51.466;6.806;2023-07-13T05:14:00;10.60;;;2.50;;
16579;SDS011;8402;51.466;6.806;2023-07-13T05:16:30;11.07;;;2.58;;
16579;SDS011;8402;51.466;6.806;2023-07-13T05:19:01;12.38;;;2.10;;
16579;SDS011;8402;51.466;6.806;2023-07-13T05:21:31;6.57;;;2.40;;
16579;SDS011;8402;51.466;6.806;2023-07-13T05:24:04;11.53;;;2.70;;
16579;SDS011;8402;51.466;6.806;2023-07-13T05:26:50;9.73;;;2.15;;
16579;SDS011;8402;51.466;6.806;2023-07-13T05:29:20;8.83;;;2.37;;
16579;SDS011;8402;51.466;6.806;2023-07-13T05:31:50;8.20;;;2.00;;
16579;SDS011;8402;51.466;6.806;2023-07-13T05:34:20;6.93;;;2.23;;
16579;SDS011;8402;51.466;6.806;2023-07-13T05:36:50;7.55;;;2.30;;
16579;SDS011;8402;51.466;6.806;2023-07-13T05:39:23;11.07;;;2.20;;
16579;SDS011;8402;51.466;6.806;2023-07-13T05:41:54;8.95;;;2.35;;
16579;SDS011;8402;51.466;6.806;2023-07-13T05:44:23;7.40;;;2.60;;
16579;SDS011;8402;51.466;6.806;2023-07-13T05:46:53;9.88;;;2.40;;
16579;SDS011;8402;51.466;6.806;2023-07-13T05:49:24;10.00;;;2.70;;
16579;SDS011;8402;51.466;6.806;2023-07-13T05:51:54;14.15;;;3.22;;
16579;SDS011;8402;51.466;6.806;2023-07-13T05:54:27;12.85;;;3.58;;
16579;SDS011;8402;51.466;6.806;2023-07-13T05:56:56;11.98;;;3.13;;
16579;SDS011;8402;51.466;6.806;2023-07-13T05:59:27;13.60;;;3.00;;
16579;SDS011;8402;51.466;6.806;2023-07-13T06:01:56;11.87;;;2.67;;
16579;SDS011;8402;51.466;6.806;2023-07-13T06:04:26;13.98;;;2.90;;
16579;SDS011;8402;51.466;6.806;2023-07-13T06:06:56;14.40;;;2.80;;
16579;SDS011;8402;51.466;6.806;2023-07-13T06:09:29;7.32;;;3.00;;
16579;SDS011;8402;51.466;6.806;2023-07-13T06:11:59;13.18;;;2.65;;
16579;SDS011;8402;51.466;6.806;2023-07-13T06:14:29;9.52;;;2.50;;
16579;SDS011;8402;51.466;6.806;2023-07-13T06:16:59;9.70;;;2.67;;
16579;SDS011;8402;51.466;6.806;2023-07-13T06:19:29;15.93;;;2.70;;
16579;SDS011;8402;51.466;6.806;2023-07-13T06:21:59;14.70;;;2.90;;
16579;SDS011;8402;51.466;6.806;2023-07-13T06:24:31;14.07;;;3.28;;
16579;SDS011;8402;51.466;6.806;2023-07-13T06:27:01;9.07;;;2.90;;
16579;SDS011;8402;51.466;6.806;2023-07-13T06:29:31;12.13;;;3.00;;
16579;SDS011;8402;51.466;6.806;2023-07-13T06:32:01;12.85;;;3.30;;
16579;SDS011;8402;51.466;6.806;2023-07-13T06:34:31;9.00;;;2.70;;
16579;SDS011;8402;51.466;6.806;2023-07-13T06:37:00;7.97;;;3.00;;
16579;SDS011;8402;51.466;6.806;2023-07-13T06:39:33;7.35;;;3.08;;
16579;SDS011;8402;51.466;6.806;2023-07-13T06:42:03;13.93;;;2.78;;
16579;SDS011;8402;51.466;6.806;2023-07-13T06:44:34;10.20;;;3.05;;
16579;SDS011;8402;51.466;6.806;2023-07-13T06:47:05;9.70;;;3.00;;
16579;SDS011;8402;51.466;6.806;2023-07-13T06:49:35;9.15;;;3.10;;
16579;SDS011;8402;51.466;6.806;2023-07-13T06:52:06;9.88;;;3.30;;
16579;SDS011;8402;51.466;6.806;2023-07-13T06:54:38;9.18;;;3.10;;
16579;SDS011;8402;51.466;6.806;2023-07-13T06:57:08;14.85;;;3.55;;
16579;SDS011;8402;51.466;6.806;2023-07-13T06:59:38;8.23;;;3.08;;
16579;SDS011;8402;51.466;6.806;2023-07-13T07:02:08;10.77;;;2.90;;
16579;SDS011;8402;51.466;6.806;2023-07-13T07:04:39;12.45;;;3.20;;
16579;SDS011;8402;51.466;6.806;2023-07-13T07:07:09;12.52;;;3.40;;
16579;SDS011;8402;51.466;6.806;2023-07-13T07:09:42;13.70;;;3.38;;
16579;SDS011;8402;51.466;6.806;2023-07-13T07:12:11;11.02;;;3.53;;
16579;SDS011;8402;51.466;6.806;2023-07-13T07:14:41;8.55;;;3.55;;
16579;SDS011;8402;51.466;6.806;2023-07-13T07:17:11;14.73;;;4.30;;
16579;SDS011;8402;51.466;6.806;2023-07-13T07:19:41;8.13;;;3.30;;
16579;SDS011;8402;51.466;6.806;2023-07-13T07:22:11;14.15;;;3.78;;
16579;SDS011;8402;51.466;6.806;2023-07-13T07:24:44;12.15;;;4.13;;
16579;SDS011;8402;51.466;6.806;2023-07-13T07:27:14;12.32;;;3.38;;
16579;SDS011;8402;51.466;6.806;2023-07-13T07:29:46;14.15;;;4.10;;
16579;SDS011;8402;51.466;6.806;2023-07-13T07:32:36;19.98;;;4.38;;
16579;SDS011;8402;51.466;6.806;2023-07-13T07:35:09;13.18;;;4.00;;
16579;SDS011;8402;51.466;6.806;2023-07-13T07:37:39;9.68;;;3.45;;
16579;SDS011;8402;51.466;6.806;2023-07-13T07:40:14;14.75;;;4.00;;
16579;SDS011;8402;51.466;6.806;2023-07-13T07:42:47;12.43;;;4.22;;
16579;SDS011;8402;51.466;6.806;2023-07-13T07:45:17;9.50;;;3.55;;
16579;SDS011;8402;51.466;6.806;2023-07-13T07:47:47;11.18;;;3.60;;
16579;SDS011;8402;51.466;6.806;2023-07-13T07:50:17;8.68;;;3.20;;
16579;SDS011;8402;51.466;6.806;2023-07-13T07:52:47;13.05;;;4.05;;
16579;SDS011;8402;51.466;6.806;2023-07-13T07:55:20;9.82;;;3.50;;
16579;SDS011;8402;51.466;6.806;2023-07-13T07:57:52;12.35;;;3.72;;
16579;SDS011;8402;51.466;6.806;2023-07-13T08:00:25;9.63;;;3.45;;
16579;SDS011;8402;51.466;6.806;2023-07-13T08:03:17;9.10;;;3.58;;
16579;SDS011;8402;51.466;6.806;2023-07-13T08:05:52;9.95;;;3.58;;
16579;SDS011;8402;51.466;6.806;2023-07-13T08:08:42;8.43;;;3.45;;
16579;SDS011;8402;51.466;6.806;2023-07-13T08:11:14;8.20;;;3.20;;
16579;SDS011;8402;51.466;6.806;2023-07-13T08:13:49;13.40;;;3.92;;
16579;SDS011;8402;51.466;6.806;2023-07-13T08:16:21;16.17;;;4.38;;
16579;SDS011;8402;51.466;6.806;2023-07-13T08:18:51;13.38;;;4.45;;
16579;SDS011;8402;51.466;6.806;2023-07-13T08:21:21;13.32;;;4.00;;
16579;SDS011;8402;51.466;6.806;2023-07-13T08:23:51;17.60;;;4.40;;
16579;SDS011;8402;51.466;6.806;2023-07-13T08:26:23;10.90;;;3.90;;
16579;SDS011;8402;51.466;6.806;2023-07-13T08:28:53;12.38;;;3.88;;
16579;SDS011;8402;51.466;6.806;2023-07-13T08:31:23;12.75;;;3.95;;
16579;SDS011;8402;51.466;6.806;2023-07-13T08:33:53;7.20;;;3.40;;
16579;SDS011;8402;51.466;6.806;2023-07-13T08:36:24;12.32;;;3.53;;
16579;SDS011;8402;51.466;6.806;2023-07-13T08:38:55;9.90;;;3.40;;
16579;SDS011;8402;51.466;6.806;2023-07-13T08:41:27;7.68;;;3.47;;
16579;SDS011;8402;51.466;6.806;2023-07-13T08:43:58;12.13;;;3.65;;
16579;SDS011;8402;51.466;6.806;2023-07-13T08:46:32;12.75;;;3.60;;
16579;SDS011;8402;51.466;6.806;2023-07-13T08:49:05;20.92;;;4.00;;
16579;SDS011;8402;51.466;6.806;2023-07-13T08:51:40;18.02;;;3.83;;
16579;SDS011;8402;51.466;6.806;2023-07-13T08:54:19;16.45;;;3.58;;
16579;SDS011;8402;51.466;6.806;2023-07-13T08:56:56;10.98;;;3.50;;
16579;SDS011;8402;51.466;6.806;2023-07-13T08:59:28;8.93;;;3.22;;
16579;SDS011;8402;51.466;6.806;2023-07-13T09:02:09;12.85;;;3.28;;
16579;SDS011;8402;51.466;6.806;2023-07-13T09:04:49;11.18;;;3.00;;
16579;SDS011;8402;51.466;6.806;2023-07-13T09:07:26;8.05;;;2.90;;
16579;SDS011;8402;51.466;6.806;2023-07-13T09:10:09;10.02;;;3.00;;
16579;SDS011;8402;51.466;6.806;2023-07-13T09:12:54;5.22;;;2.75;;
16579;SDS011;8402;51.466;6.806;2023-07-13T09:15:35;6.55;;;2.75;;
16579;SDS011;8402;51.466;6.806;2023-07-13T09:18:10;10.00;;;3.08;;
16579;SDS011;8402;51.466;6.806;2023-07-13T09:20:46;9.05;;;3.30;;
16579;SDS011;8402;51.466;6.806;2023-07-13T09:23:19;6.43;;;3.10;;
16579;SDS011;8402;51.466;6.806;2023-07-13T09:25:51;7.15;;;3.47;;
16579;SDS011;8402;51.466;6.806;2023-07-13T09:28:27;7.85;;;3.22;;
16579;SDS011;8402;51.466;6.806;2023-07-13T09:31:00;13.00;;;4.03;;
16579;SDS011;8402;51.466;6.806;2023-07-13T09:33:34;8.80;;;3.45;;
16579;SDS011;8402;51.466;6.806;2023-07-13T09:36:05;10.52;;;3.88;;
16579;SDS011;8402;51.466;6.806;2023-07-13T09:38:48;14.80;;;3.40;;
16579;SDS011;8402;51.466;6.806;2023-07-13T09:41:23;13.10;;;3.35;;
16579;SDS011;8402;51.466;6.806;2023-07-13T09:44:12;11.02;;;3.47;;
16579;SDS011;8402;51.466;6.806;2023-07-13T09:46:44;7.95;;;3.45;;
16579;SDS011;8402;51.466;6.806;2023-07-13T09:49:16;9.80;;;3.55;;
16579;SDS011;8402;51.466;6.806;2023-07-13T09:51:46;9.55;;;3.28;;
16579;SDS011;8402;51.466;6.806;2023-07-13T09:54:17;7.70;;;2.88;;
16579;SDS011;8402;51.466;6.806;2023-07-13T09:56:54;8.73;;;3.45;;
16579;SDS011;8402;51.466;6.806;2023-07-13T09:59:28;7.18;;;2.65;;
16579;SDS011;8402;51.466;6.806;2023-07-13T10:02:00;7.57;;;2.80;;
16579;SDS011;8402;51.466;6.806;2023-07-13T10:04:32;9.40;;;2.95;;
16579;SDS011;8402;51.466;6.806;2023-07-13T10:07:07;6.22;;;2.70;;
16579;SDS011;8402;51.466;6.806;2023-07-13T10:09:54;6.93;;;2.90;;
16579;SDS011;8402;51.466;6.806;2023-07-13T10:12:28;8.13;;;2.78;;
16579;SDS011;8402;51.466;6.806;2023-07-13T10:15:02;6.90;;;2.60;;
16579;SDS011;8402;51.466;6.806;2023-07-13T10:17:51;8.60;;;2.90;;
16579;SDS011;8402;51.466;6.806;2023-07-13T10:20:25;8.25;;;2.90;;
16579;SDS011;8402;51.466;6.806;2023-07-13T10:22:57;9.48;;;2.92;;
16579;SDS011;8402;51.466;6.806;2023-07-13T10:25:31;10.77;;;2.92;;
16579;SDS011;8402;51.466;6.806;2023-07-13T10:28:03;12.40;;;3.13;;
16579;SDS011;8402;51.466;6.806;2023-07-13T10:30:43;9.85;;;3.30;;
16579;SDS011;8402;51.466;6.806;2023-07-13T10:33:16;6.07;;;2.85;;
16579;SDS011;8402;51.466;6.806;2023-07-13T10:35:46;9.15;;;2.97;;
16579;SDS011;8402;51.466;6.806;2023-07-13T10:38:21;9.70;;;2.92;;
16579;SDS011;8402;51.466;6.806;2023-07-13T10:40:55;10.23;;;3.20;;
16579;SDS011;8402;51.466;6.806;2023-07-13T10:43:28;7.40;;;2.63;;
16579;SDS011;8402;51.466;6.806;2023-07-13T10:46:10;6.78;;;2.90;;
16579;SDS011;8402;51.466;6.806;2023-07-13T10:48:43;9.82;;;2.47;;
16579;SDS011;8402;51.466;6.806;2023-07-13T10:51:17;7.50;;;2.60;;
16579;SDS011;8402;51.466;6.806;2023-07-13T10:54:10;8.50;;;2.72;;
16579;SDS011;8402;51.466;6.806;2023-07-13T10:56:49;7.10;;;2.50;;
16579;SDS011;8402;51.466;6.806;2023-07-13T10:59:36;7.88;;;2.45;;
16579;SDS011;8402;51.466;6.806;2023-07-13T11:02:15;7.97;;;2.45;;
16579;SDS011;8402;51.466;6.806;2023-07-13T11:04:53;8.48;;;2.42;;
16579;SDS011;8402;51.466;6.806;2023-07-13T11:07:25;6.53;;;2.20;;
16579;SDS011;8402;51.466;6.806;2023-07-13T11:09:59;7.55;;;2.60;;
16579;SDS011;8402;51.466;6.806;2023-07-13T11:15:39;8.63;;;2.28;;
16579;SDS011;8402;51.466;6.806;2023-07-13T11:18:23;5.50;;;2.60;;
16579;SDS011;8402;51.466;6.806;2023-07-13T11:20:59;4.22;;;1.67;;
16579;SDS011;8402;51.466;6.806;2023-07-13T11:24:02;7.93;;;2.33;;
16579;SDS011;8402;51.466;6.806;2023-07-13T11:26:39;7.07;;;2.33;;
16579;SDS011;8402;51.466;6.806;2023-07-13T11:29:14;12.63;;;2.33;;
16579;SDS011;8402;51.466;6.806;2023-07-13T11:31:56;5.35;;;2.38;;
16579;SDS011;8402;51.466;6.806;2023-07-13T11:34:31;6.78;;;2.00;;
16579;SDS011;8402;51.466;6.806;2023-07-13T11:37:08;8.38;;;2.40;;
16579;SDS011;8402;51.466;6.806;2023-07-13T11:39:41;7.03;;;2.03;;
16579;SDS011;8402;51.466;6.806;2023-07-13T11:42:14;6.30;;;2.30;;
16579;SDS011;8402;51.466;6.806;2023-07-13T11:44:47;9.68;;;2.25;;
16579;SDS011;8402;51.466;6.806;2023-07-13T11:47:39;6.43;;;2.55;;
16579;SDS011;8402;51.466;6.806;2023-07-13T11:50:20;8.10;;;2.03;;
16579;SDS011;8402;51.466;6.806;2023-07-13T11:52:52;8.90;;;2.35;;
16579;SDS011;8402;51.466;6.806;2023-07-13T11:55:24;6.60;;;2.10;;
16579;SDS011;8402;51.466;6.806;2023-07-13T11:57:56;8.02;;;2.33;;
16579;SDS011;8402;51.466;6.806;2023-07-13T12:00:28;5.10;;;2.05;;
16579;SDS011;8402;51.466;6.806;2023-07-13T12:03:02;5.50;;;1.88;;
16579;SDS011;8402;51.466;6.806;2023-07-13T12:05:37;4.32;;;1.77;;
16579;SDS011;8402;51.466;6.806;2023-07-13T12:08:10;4.15;;;1.77;;
16579;SDS011;8402;51.466;6.806;2023-07-13T12:10:56;12.55;;;2.83;;
16579;SDS011;8402;51.466;6.806;2023-07-13T12:13:26;4.30;;;1.98;;
16579;SDS011;8402;51.466;6.806;2023-07-13T12:15:58;6.65;;;1.90;;
16579;SDS011;8402;51.466;6.806;2023-07-13T12:18:28;4.93;;;2.15;;
16579;SDS011;8402;51.466;6.806;2023-07-13T12:21:03;5.65;;;1.98;;
16579;SDS011;8402;51.466;6.806;2023-07-13T12:23:34;6.78;;;2.35;;
16579;SDS011;8402;51.466;6.806;2023-07-13T12:26:05;5.30;;;2.15;;
16579;SDS011;8402;51.466;6.806;2023-07-13T12:28:38;6.57;;;1.90;;
16579;SDS011;8402;51.466;6.806;2023-07-13T12:31:22;5.45;;;1.90;;
16579;SDS011;8402;51.466;6.806;2023-07-13T12:33:58;6.32;;;2.08;;
16579;SDS011;8402;51.466;6.806;2023-07-13T12:36:34;9.95;;;2.35;;
16579;SDS011;8402;51.466;6.806;2023-07-13T12:39:16;15.85;;;2.70;;
16579;SDS011;8402;51.466;6.806;2023-07-13T12:41:48;17.65;;;3.10;;
16579;SDS011;8402;51.466;6.806;2023-07-13T12:44:22;21.98;;;3.75;;
16579;SDS011;8402;51.466;6.806;2023-07-13T12:46:57;14.65;;;3.28;;
16579;SDS011;8402;51.466;6.806;2023-07-13T12:49:33;13.45;;;3.03;;
16579;SDS011;8402;51.466;6.806;2023-07-13T12:52:12;9.00;;;2.60;;
16579;SDS011;8402;51.466;6.806;2023-07-13T12:54:52;11.27;;;2.50;;
16579;SDS011;8402;51.466;6.806;2023-07-13T12:57:32;15.07;;;3.45;;
16579;SDS011;8402;51.466;6.806;2023-07-13T13:00:14;8.95;;;2.22;;
16579;SDS011;8402;51.466;6.806;2023-07-13T13:02:52;3.83;;;1.70;;
16579;SDS011;8402;51.466;6.806;2023-07-13T13:05:44;4.40;;;1.95;;
16579;SDS011;8402;51.466;6.806;2023-07-13T13:08:16;7.72;;;2.20;;
16579;SDS011;8402;51.466;6.806;2023-07-13T13:10:46;4.25;;;2.08;;
16579;SDS011;8402;51.466;6.806;2023-07-13T13:13:16;5.57;;;2.63;;
16579;SDS011;8402;51.466;6.806;2023-07-13T13:15:46;8.32;;;2.13;;
16579;SDS011;8402;51.466;6.806;2023-07-13T13:18:17;4.63;;;1.88;;
16579;SDS011;8402;51.466;6.806;2023-07-13T13:20:48;5.10;;;1.95;;
16579;SDS011;8402;51.466;6.806;2023-07-13T13:23:21;4.78;;;1.77;;
16579;SDS011;8402;51.466;6.806;2023-07-13T13:25:52;4.00;;;2.03;;
16579;SDS011;8402;51.466;6.806;2023-07-13T13:28:22;5.70;;;1.92;;
16579;SDS011;8402;51.466;6.806;2023-07-13T13:30:52;6.85;;;2.15;;
16579;SDS011;8402;51.466;6.806;2023-07-13T13:33:25;5.93;;;2.25;;
16579;SDS011;8402;51.466;6.806;2023-07-13T13:35:54;6.57;;;2.20;;
16579;SDS011;8402;51.466;6.806;2023-07-13T13:38:27;4.25;;;2.17;;
16579;SDS011;8402;51.466;6.806;2023-07-13T13:40:57;5.90;;;2.40;;
16579;SDS011;8402;51.466;6.806;2023-07-13T13:43:27;5.63;;;2.22;;
16579;SDS011;8402;51.466;6.806;2023-07-13T13:45:58;6.35;;;2.40;;
16579;SDS011;8402;51.466;6.806;2023-07-13T13:48:30;9.48;;;2.67;;
16579;SDS011;8402;51.466;6.806;2023-07-13T13:51:06;5.97;;;2.10;;
16579;SDS011;8402;51.466;6.806;2023-07-13T13:53:46;3.92;;;2.20;;
16579;SDS011;8402;51.466;6.806;2023-07-13T13:56:18;5.65;;;2.30;;
16579;SDS011;8402;51.466;6.806;2023-07-13T13:58:49;6.15;;;2.55;;
16579;SDS011;8402;51.466;6.806;2023-07-13T14:01:19;7.78;;;2.20;;
16579;SDS011;8402;51.466;6.806;2023-07-13T14:03:51;5.00;;;2.45;;
16579;SDS011;8402;51.466;6.806;2023-07-13T14:06:21;5.93;;;2.40;;
16579;SDS011;8402;51.466;6.806;2023-07-13T14:08:53;4.00;;;2.28;;
16579;SDS011;8402;51.466;6.806;2023-07-13T14:11:24;4.30;;;2.60;;
16579;SDS011;8402;51.466;6.806;2023-07-13T14:13:56;6.30;;;3.10;;
16579;SDS011;8402;51.466;6.806;2023-07-13T14:16:30;9.55;;;3.05;;
16579;SDS011;8402;51.466;6.806;2023-07-13T14:19:02;8.40;;;3.38;;
16579;SDS011;8402;51.466;6.806;2023-07-13T14:21:32;7.82;;;3.00;;
16579;SDS011;8402;51.466;6.806;2023-07-13T14:24:05;11.15;;;3.22;;
16579;SDS011;8402;51.466;6.806;2023-07-13T14:26:36;7.28;;;2.97;;
16579;SDS011;8402;51.466;6.806;2023-07-13T14:29:11;6.72;;;2.92;;
16579;SDS011;8402;51.466;6.806;2023-07-13T14:31:46;7.70;;;3.35;;
16579;SDS011;8402;51.466;6.806;2023-07-13T14:34:16;7.90;;;2.97;;
16579;SDS011;8402;51.466;6.806;2023-07-13T14:36:47;7.22;;;2.85;;
16579;SDS011;8402;51.466;6.806;2023-07-13T14:39:22;11.13;;;3.17;;
16579;SDS011;8402;51.466;6.806;2023-07-13T14:41:53;7.90;;;3.10;;
16579;SDS011;8402;51.466;6.806;2023-07-13T14:44:25;7.00;;;2.75;;
16579;SDS011;8402;51.466;6.806;2023-07-13T14:46:56;6.65;;;2.88;;
16579;SDS011;8402;51.466;6.806;2023-07-13T14:49:28;8.48;;;3.67;;
16579;SDS011;8402;51.466;6.806;2023-07-13T14:52:00;15.00;;;4.85;;
16579;SDS011;8402;51.466;6.806;2023-07-13T14:54:37;7.95;;;4.75;;
16579;SDS011;8402;51.466;6.806;2023-07-13T14:57:10;12.80;;;4.85;;
16579;SDS011;8402;51.466;6.806;2023-07-13T14:59:42;11.32;;;4.78;;
16579;SDS011;8402;51.466;6.806;2023-07-13T15:02:16;10.15;;;4.38;;
16579;SDS011;8402;51.466;6.806;2023-07-13T15:04:51;8.90;;;3.42;;
16579;SDS011;8402;51.466;6.806;2023-07-13T15:07:24;6.18;;;3.00;;
16579;SDS011;8402;51.466;6.806;2023-07-13T15:09:57;6.13;;;2.60;;
16579;SDS011;8402;51.466;6.806;2023-07-13T15:12:27;4.50;;;2.67;;
16579;SDS011;8402;51.466;6.806;2023-07-13T15:14:57;9.90;;;3.03;;
16579;SDS011;8402;51.466;6.806;2023-07-13T15:17:28;8.00;;;2.70;;
16579;SDS011;8402;51.466;6.806;2023-07-13T15:20:04;7.00;;;2.90;;
16579;SDS011;8402;51.466;6.806;2023-07-13T15:22:44;10.65;;;3.58;;
16579;SDS011;8402;51.466;6.806;2023-07-13T15:25:19;10.60;;;3.58;;
16579;SDS011;8402;51.466;6.806;2023-07-13T15:27:51;9.80;;;3.80;;
16579;SDS011;8402;51.466;6.806;2023-07-13T15:30:22;5.95;;;3.25;;
16579;SDS011;8402;51.466;6.806;2023-07-13T15:32:55;7.45;;;2.88;;
16579;SDS011;8402;51.466;6.806;2023-07-13T15:35:27;6.88;;;2.92;;